RYR5549 LIPE-LBSF
Flight info
| Callsign | RYR5549 |
|---|---|
| Flight time | 1h 26m |
| Altitude | 39000 |
| Route | LUMAV M859 CHI DCT ULPIN DCT ELTIB DCT MITNO DCT TORTO DCT RAMAP DCT NISVA |
| Aircraft | A20N/M-SDE2E3FGHIRWXY/LB1 |
Departure
| Time | 2026-04-30 12:25 |
|---|---|
| Airport | Bologna Guglielmo Marconi Airport (LIPE) |
Arrival
| Time | 2026-04-30 13:52 |
|---|---|
| Airport | Sofia Airport (LBSF) |
| Time | Latitude | Longitude | Altitude | Speed | Heading |
|---|---|---|---|---|---|
| 2026-04-30 12:00 | 44.53058 | 11.29380 | 129 ft | 0 kts | 207° |
| 2026-04-30 12:16 | 44.53074 | 11.29391 | 129 ft | 3 kts | 207° |
| 2026-04-30 12:17 | 44.53119 | 11.29388 | 128 ft | 3 kts | 127° |
| 2026-04-30 12:17 | 44.53122 | 11.29379 | 128 ft | 0 kts | 113° |
| 2026-04-30 12:19 | 44.53122 | 11.29381 | 128 ft | 1 kts | 121° |
| 2026-04-30 12:20 | 44.53105 | 11.29417 | 128 ft | 5 kts | 122° |
| 2026-04-30 12:20 | 44.53083 | 11.29460 | 129 ft | 5 kts | 122° |
| 2026-04-30 12:20 | 44.53062 | 11.29517 | 129 ft | 8 kts | 114° |
| 2026-04-30 12:20 | 44.53096 | 11.29550 | 127 ft | 9 kts | 317° |
| 2026-04-30 12:21 | 44.53130 | 11.29467 | 128 ft | 11 kts | 296° |
| 2026-04-30 12:21 | 44.53187 | 11.29309 | 127 ft | 20 kts | 296° |
| 2026-04-30 12:21 | 44.53253 | 11.29129 | 125 ft | 21 kts | 296° |
| 2026-04-30 12:21 | 44.53320 | 11.28944 | 124 ft | 21 kts | 297° |
| 2026-04-30 12:22 | 44.53388 | 11.28758 | 122 ft | 21 kts | 297° |
| 2026-04-30 12:22 | 44.53458 | 11.28561 | 118 ft | 23 kts | 297° |
| 2026-04-30 12:22 | 44.53533 | 11.28356 | 117 ft | 23 kts | 296° |
| 2026-04-30 12:22 | 44.53604 | 11.28155 | 117 ft | 22 kts | 296° |
| 2026-04-30 12:23 | 44.53674 | 11.27963 | 118 ft | 21 kts | 296° |
| 2026-04-30 12:23 | 44.53738 | 11.27784 | 120 ft | 19 kts | 296° |
| 2026-04-30 12:23 | 44.53801 | 11.27615 | 121 ft | 18 kts | 313° |
| 2026-04-30 12:23 | 44.53920 | 11.27590 | 121 ft | 17 kts | 34° |
| 2026-04-30 12:24 | 44.53951 | 11.27736 | 120 ft | 16 kts | 114° |
| 2026-04-30 12:24 | 44.53898 | 11.27883 | 119 ft | 18 kts | 116° |
| 2026-04-30 12:24 | 44.53742 | 11.28318 | 117 ft | 88 kts | 117° |
| 2026-04-30 12:24 | 44.53356 | 11.29390 | 124 ft | 153 kts | 118° |
| 2026-04-30 12:25 | 44.52815 | 11.30820 | 535 ft | 172 kts | 117° |
| 2026-04-30 12:25 | 44.52509 | 11.32345 | 1333 ft | 165 kts | 79° |
| 2026-04-30 12:25 | 44.53118 | 11.33623 | 2110 ft | 165 kts | 40° |
| 2026-04-30 12:25 | 44.54164 | 11.34314 | 2759 ft | 175 kts | 15° |
| 2026-04-30 12:26 | 44.55402 | 11.34464 | 3280 ft | 187 kts | 9° |
| 2026-04-30 12:26 | 44.56776 | 11.34628 | 3708 ft | 207 kts | 9° |
| 2026-04-30 12:26 | 44.58279 | 11.34842 | 4273 ft | 221 kts | 11° |
| 2026-04-30 12:26 | 44.59755 | 11.35541 | 4879 ft | 229 kts | 36° |
| 2026-04-30 12:27 | 44.61023 | 11.37009 | 5459 ft | 244 kts | 43° |
| 2026-04-30 12:27 | 44.62297 | 11.38666 | 6152 ft | 254 kts | 43° |
| 2026-04-30 12:27 | 44.63598 | 11.40325 | 7012 ft | 257 kts | 42° |
| 2026-04-30 12:27 | 44.64949 | 11.42000 | 7858 ft | 261 kts | 41° |
| 2026-04-30 12:28 | 44.66318 | 11.43663 | 8655 ft | 265 kts | 40° |
| 2026-04-30 12:28 | 44.67729 | 11.45357 | 9431 ft | 270 kts | 40° |
| 2026-04-30 12:28 | 44.69177 | 11.47088 | 10224 ft | 274 kts | 40° |
| 2026-04-30 12:28 | 44.70641 | 11.48837 | 10884 ft | 282 kts | 40° |
| 2026-04-30 12:29 | 44.72179 | 11.50669 | 11281 ft | 299 kts | 39° |
| 2026-04-30 12:29 | 44.73828 | 11.52612 | 11847 ft | 310 kts | 39° |
| 2026-04-30 12:29 | 44.75465 | 11.54537 | 12596 ft | 313 kts | 39° |
| 2026-04-30 12:29 | 44.77153 | 11.56523 | 13351 ft | 316 kts | 38° |
| 2026-04-30 12:30 | 44.78848 | 11.58522 | 14076 ft | 320 kts | 38° |
| 2026-04-30 12:30 | 44.80532 | 11.60651 | 14773 ft | 325 kts | 44° |
| 2026-04-30 12:30 | 44.81983 | 11.63131 | 15469 ft | 330 kts | 52° |
| 2026-04-30 12:30 | 44.83183 | 11.65909 | 16135 ft | 335 kts | 58° |
| 2026-04-30 12:31 | 44.84314 | 11.68820 | 16775 ft | 339 kts | 59° |
| 2026-04-30 12:31 | 44.85441 | 11.71760 | 17395 ft | 343 kts | 59° |
| 2026-04-30 12:31 | 44.86573 | 11.74707 | 18019 ft | 346 kts | 58° |
| 2026-04-30 12:31 | 44.87724 | 11.77688 | 18625 ft | 349 kts | 58° |
| 2026-04-30 12:32 | 44.88882 | 11.80673 | 19244 ft | 352 kts | 58° |
| 2026-04-30 12:32 | 44.90066 | 11.83724 | 19865 ft | 355 kts | 57° |
| 2026-04-30 12:32 | 44.91246 | 11.86765 | 20483 ft | 357 kts | 57° |
| 2026-04-30 12:32 | 44.92443 | 11.89853 | 21090 ft | 360 kts | 57° |
| 2026-04-30 12:33 | 44.93649 | 11.92968 | 21681 ft | 363 kts | 57° |
| 2026-04-30 12:33 | 44.94862 | 11.96111 | 22252 ft | 366 kts | 57° |
| 2026-04-30 12:33 | 44.96087 | 11.99294 | 22825 ft | 369 kts | 57° |
| 2026-04-30 12:33 | 44.97318 | 12.02495 | 23394 ft | 372 kts | 57° |
| 2026-04-30 12:34 | 44.98552 | 12.05708 | 23956 ft | 375 kts | 57° |
| 2026-04-30 12:34 | 44.99810 | 12.08989 | 24495 ft | 378 kts | 57° |
| 2026-04-30 12:34 | 45.01067 | 12.12269 | 25010 ft | 381 kts | 57° |
| 2026-04-30 12:34 | 45.02320 | 12.15543 | 25503 ft | 383 kts | 57° |
| 2026-04-30 12:35 | 45.03585 | 12.18853 | 25983 ft | 386 kts | 57° |
| 2026-04-30 12:35 | 45.04865 | 12.22210 | 26451 ft | 389 kts | 57° |
| 2026-04-30 12:35 | 45.06042 | 12.25701 | 26867 ft | 397 kts | 66° |
| 2026-04-30 12:35 | 45.06588 | 12.29559 | 27275 ft | 409 kts | 82° |
| 2026-04-30 12:36 | 45.06403 | 12.33639 | 27686 ft | 419 kts | 96° |
| 2026-04-30 12:36 | 45.05824 | 12.37736 | 28106 ft | 423 kts | 97° |
| 2026-04-30 12:36 | 45.05206 | 12.41802 | 28462 ft | 426 kts | 98° |
| 2026-04-30 12:36 | 45.04580 | 12.45916 | 28892 ft | 427 kts | 98° |
| 2026-04-30 12:37 | 45.03963 | 12.50009 | 29396 ft | 426 kts | 97° |
| 2026-04-30 12:37 | 45.03352 | 12.54110 | 29772 ft | 427 kts | 97° |
| 2026-04-30 12:37 | 45.02743 | 12.58236 | 30072 ft | 430 kts | 97° |
| 2026-04-30 12:37 | 45.02129 | 12.62390 | 30369 ft | 433 kts | 97° |
| 2026-04-30 12:38 | 45.01512 | 12.66568 | 30696 ft | 435 kts | 98° |
| 2026-04-30 12:38 | 45.00896 | 12.70749 | 30941 ft | 437 kts | 98° |
| 2026-04-30 12:38 | 45.00277 | 12.74948 | 31157 ft | 439 kts | 98° |
| 2026-04-30 12:38 | 44.99650 | 12.79191 | 31365 ft | 441 kts | 98° |
| 2026-04-30 12:39 | 44.99011 | 12.83498 | 31580 ft | 444 kts | 98° |
| 2026-04-30 12:39 | 44.98370 | 12.87807 | 31776 ft | 446 kts | 98° |
| 2026-04-30 12:39 | 44.97725 | 12.92119 | 31975 ft | 448 kts | 98° |
| 2026-04-30 12:39 | 44.97074 | 12.96460 | 32172 ft | 450 kts | 98° |
| 2026-04-30 12:40 | 44.96423 | 13.00797 | 32363 ft | 452 kts | 98° |
| 2026-04-30 12:40 | 44.95757 | 13.05214 | 32551 ft | 454 kts | 98° |
| 2026-04-30 12:40 | 44.95101 | 13.09560 | 32731 ft | 456 kts | 98° |
| 2026-04-30 12:40 | 44.94432 | 13.13968 | 32906 ft | 458 kts | 98° |
| 2026-04-30 12:41 | 44.93767 | 13.18336 | 33075 ft | 460 kts | 98° |
| 2026-04-30 12:41 | 44.93100 | 13.22716 | 33260 ft | 461 kts | 98° |
| 2026-04-30 12:41 | 44.92423 | 13.27149 | 33428 ft | 462 kts | 98° |
| 2026-04-30 12:41 | 44.91747 | 13.31565 | 33568 ft | 464 kts | 98° |
| 2026-04-30 12:42 | 44.91063 | 13.36018 | 33711 ft | 466 kts | 98° |
| 2026-04-30 12:42 | 44.90365 | 13.40549 | 33864 ft | 467 kts | 98° |
| 2026-04-30 12:42 | 44.89676 | 13.45008 | 34013 ft | 468 kts | 98° |
| 2026-04-30 12:42 | 44.88979 | 13.49504 | 34187 ft | 470 kts | 99° |
| 2026-04-30 12:43 | 44.88285 | 13.53975 | 34410 ft | 469 kts | 99° |
| 2026-04-30 12:43 | 44.87578 | 13.58514 | 34626 ft | 469 kts | 99° |
| 2026-04-30 12:43 | 44.86880 | 13.62983 | 34831 ft | 469 kts | 99° |
| 2026-04-30 12:43 | 44.86171 | 13.67514 | 35057 ft | 469 kts | 99° |
| 2026-04-30 12:44 | 44.85469 | 13.71988 | 35251 ft | 468 kts | 99° |
| 2026-04-30 12:44 | 44.84761 | 13.76497 | 35461 ft | 468 kts | 99° |
| 2026-04-30 12:44 | 44.84059 | 13.80950 | 35656 ft | 467 kts | 99° |
| 2026-04-30 12:44 | 44.83353 | 13.85415 | 35831 ft | 467 kts | 99° |
| 2026-04-30 12:45 | 44.82641 | 13.89897 | 36006 ft | 467 kts | 99° |
| 2026-04-30 12:45 | 44.81927 | 13.94375 | 36186 ft | 467 kts | 99° |
| 2026-04-30 12:45 | 44.81217 | 13.98832 | 36360 ft | 466 kts | 99° |
| 2026-04-30 12:45 | 44.80503 | 14.03299 | 36525 ft | 466 kts | 99° |
| 2026-04-30 12:46 | 44.79784 | 14.07774 | 36678 ft | 466 kts | 99° |
| 2026-04-30 12:46 | 44.79069 | 14.12221 | 36826 ft | 466 kts | 99° |
| 2026-04-30 12:46 | 44.78345 | 14.16711 | 36965 ft | 466 kts | 99° |
| 2026-04-30 12:46 | 44.77629 | 14.21135 | 37128 ft | 466 kts | 99° |
| 2026-04-30 12:47 | 44.76900 | 14.25632 | 37267 ft | 466 kts | 99° |
| 2026-04-30 12:47 | 44.76174 | 14.30090 | 37400 ft | 466 kts | 99° |
| 2026-04-30 12:47 | 44.75460 | 14.34473 | 37537 ft | 466 kts | 99° |
| 2026-04-30 12:47 | 44.74723 | 14.38982 | 37674 ft | 465 kts | 99° |
| 2026-04-30 12:48 | 44.74005 | 14.43359 | 37801 ft | 465 kts | 99° |
| 2026-04-30 12:48 | 44.73272 | 14.47819 | 37918 ft | 465 kts | 99° |
| 2026-04-30 12:48 | 44.72541 | 14.52263 | 38025 ft | 466 kts | 99° |
| 2026-04-30 12:48 | 44.71799 | 14.56754 | 38126 ft | 466 kts | 99° |
| 2026-04-30 12:49 | 44.71066 | 14.61178 | 38253 ft | 466 kts | 99° |
| 2026-04-30 12:49 | 44.70323 | 14.65647 | 38376 ft | 465 kts | 101° |
| 2026-04-30 12:49 | 44.69563 | 14.70083 | 38481 ft | 465 kts | 101° |
| 2026-04-30 12:49 | 44.68790 | 14.74509 | 38571 ft | 466 kts | 101° |
| 2026-04-30 12:50 | 44.67237 | 14.83319 | 38782 ft | 466 kts | 101° |
| 2026-04-30 12:50 | 44.65673 | 14.92168 | 38957 ft | 467 kts | 101° |
| 2026-04-30 12:51 | 44.64090 | 15.01085 | 39167 ft | 466 kts | 101° |
| 2026-04-30 12:51 | 44.62518 | 15.09905 | 39201 ft | 467 kts | 101° |
| 2026-04-30 12:52 | 44.60924 | 15.18807 | 39208 ft | 468 kts | 101° |
| 2026-04-30 12:52 | 44.59331 | 15.27660 | 39220 ft | 468 kts | 102° |
| 2026-04-30 12:53 | 44.57721 | 15.36558 | 39222 ft | 469 kts | 102° |
| 2026-04-30 12:53 | 44.56099 | 15.45481 | 39229 ft | 469 kts | 101° |
| 2026-04-30 12:54 | 44.54474 | 15.54383 | 39221 ft | 470 kts | 102° |
| 2026-04-30 12:54 | 44.52840 | 15.63283 | 39226 ft | 470 kts | 102° |
| 2026-04-30 12:55 | 44.51186 | 15.72279 | 39216 ft | 471 kts | 102° |
| 2026-04-30 12:55 | 44.49544 | 15.81157 | 39223 ft | 471 kts | 102° |
| 2026-04-30 12:56 | 44.47885 | 15.90076 | 39222 ft | 471 kts | 102° |
| 2026-04-30 12:56 | 44.46219 | 15.98985 | 39225 ft | 471 kts | 102° |
| 2026-04-30 12:57 | 44.44538 | 16.07921 | 39204 ft | 471 kts | 102° |
| 2026-04-30 12:57 | 44.42858 | 16.16824 | 39182 ft | 472 kts | 103° |
| 2026-04-30 12:58 | 44.41174 | 16.25708 | 39181 ft | 471 kts | 103° |
| 2026-04-30 12:58 | 44.39479 | 16.34601 | 39193 ft | 473 kts | 103° |
| 2026-04-30 12:59 | 44.37771 | 16.43514 | 39194 ft | 473 kts | 103° |
| 2026-04-30 12:59 | 44.36052 | 16.52450 | 39192 ft | 473 kts | 103° |
| 2026-04-30 13:00 | 44.34325 | 16.61375 | 39199 ft | 473 kts | 103° |
| 2026-04-30 13:00 | 44.32594 | 16.70306 | 39202 ft | 473 kts | 104° |
| 2026-04-30 13:01 | 44.30859 | 16.79207 | 39200 ft | 473 kts | 104° |
| 2026-04-30 13:01 | 44.29077 | 16.88077 | 39211 ft | 473 kts | 104° |
| 2026-04-30 13:02 | 44.27226 | 16.96977 | 39209 ft | 475 kts | 104° |
| 2026-04-30 13:02 | 44.25381 | 17.05818 | 39227 ft | 475 kts | 105° |
| 2026-04-30 13:03 | 44.23524 | 17.14695 | 39207 ft | 474 kts | 105° |
| 2026-04-30 13:03 | 44.21661 | 17.23563 | 39196 ft | 474 kts | 105° |
| 2026-04-30 13:04 | 44.19801 | 17.32382 | 39197 ft | 474 kts | 105° |
| 2026-04-30 13:04 | 44.17929 | 17.41221 | 39213 ft | 474 kts | 105° |
| 2026-04-30 13:05 | 44.16047 | 17.50055 | 39237 ft | 475 kts | 105° |
| 2026-04-30 13:06 | 44.13200 | 17.63376 | 39246 ft | 476 kts | 105° |
| 2026-04-30 13:06 | 44.11298 | 17.72243 | 39237 ft | 475 kts | 105° |
| 2026-04-30 13:07 | 44.09393 | 17.81086 | 39234 ft | 474 kts | 106° |
| 2026-04-30 13:07 | 44.07484 | 17.89896 | 39242 ft | 474 kts | 106° |
| 2026-04-30 13:08 | 44.05569 | 17.98689 | 39264 ft | 474 kts | 105° |
| 2026-04-30 13:08 | 44.03641 | 18.07506 | 39273 ft | 475 kts | 105° |
| 2026-04-30 13:09 | 44.01700 | 18.16354 | 39280 ft | 475 kts | 106° |
| 2026-04-30 13:09 | 43.99761 | 18.25149 | 39288 ft | 475 kts | 106° |
| 2026-04-30 13:10 | 43.97801 | 18.33995 | 39286 ft | 475 kts | 106° |
| 2026-04-30 13:10 | 43.95840 | 18.42814 | 39282 ft | 476 kts | 106° |
| 2026-04-30 13:11 | 43.93885 | 18.51566 | 39264 ft | 476 kts | 106° |
| 2026-04-30 13:11 | 43.91920 | 18.60336 | 39257 ft | 475 kts | 106° |
| 2026-04-30 13:12 | 43.89938 | 18.69155 | 39253 ft | 476 kts | 107° |
| 2026-04-30 13:12 | 43.87938 | 18.77910 | 39262 ft | 475 kts | 107° |
| 2026-04-30 13:13 | 43.84954 | 18.90962 | 39271 ft | 475 kts | 107° |
| 2026-04-30 13:14 | 43.81955 | 19.04090 | 39279 ft | 476 kts | 107° |
| 2026-04-30 13:14 | 43.78931 | 19.17252 | 39290 ft | 478 kts | 107° |
| 2026-04-30 13:15 | 43.76002 | 19.30371 | 39278 ft | 477 kts | 105° |
| 2026-04-30 13:16 | 43.74196 | 19.39197 | 39272 ft | 476 kts | 104° |
| 2026-04-30 13:16 | 43.72369 | 19.48025 | 39254 ft | 477 kts | 105° |
| 2026-04-30 13:17 | 43.69604 | 19.61214 | 39234 ft | 476 kts | 105° |
| 2026-04-30 13:18 | 43.66858 | 19.74238 | 39233 ft | 476 kts | 105° |
| 2026-04-30 13:18 | 43.64064 | 19.87402 | 39237 ft | 477 kts | 106° |
| 2026-04-30 13:19 | 43.62184 | 19.96193 | 39239 ft | 477 kts | 106° |
| 2026-04-30 13:19 | 43.60296 | 20.04997 | 39234 ft | 478 kts | 106° |
| 2026-04-30 13:20 | 43.58408 | 20.13764 | 39238 ft | 478 kts | 106° |
| 2026-04-30 13:20 | 43.56503 | 20.22560 | 39243 ft | 477 kts | 106° |
| 2026-04-30 13:21 | 43.54595 | 20.31340 | 39247 ft | 478 kts | 106° |
| 2026-04-30 13:22 | 43.51730 | 20.44457 | 39248 ft | 479 kts | 106° |
| 2026-04-30 13:22 | 43.48843 | 20.57599 | 39243 ft | 478 kts | 106° |
| 2026-04-30 13:23 | 43.45952 | 20.70691 | 39233 ft | 479 kts | 107° |
| 2026-04-30 13:24 | 43.42054 | 20.88201 | 39217 ft | 479 kts | 107° |
| 2026-04-30 13:25 | 43.40113 | 20.96879 | 38302 ft | 485 kts | 107° |
| 2026-04-30 13:25 | 43.38103 | 21.05838 | 36514 ft | 497 kts | 108° |
| 2026-04-30 13:26 | 43.35030 | 21.19431 | 34680 ft | 503 kts | 109° |
| 2026-04-30 13:26 | 43.32944 | 21.28617 | 33328 ft | 507 kts | 109° |
| 2026-04-30 13:27 | 43.30847 | 21.37795 | 31952 ft | 508 kts | 110° |
| 2026-04-30 13:28 | 43.27727 | 21.51396 | 30449 ft | 495 kts | 110° |
| 2026-04-30 13:28 | 43.25661 | 21.60325 | 29370 ft | 487 kts | 110° |
| 2026-04-30 13:28 | 43.24640 | 21.64739 | 28861 ft | 483 kts | 110° |
| 2026-04-30 13:29 | 43.22633 | 21.73404 | 27766 ft | 476 kts | 111° |
| 2026-04-30 13:29 | 43.20644 | 21.81960 | 26728 ft | 467 kts | 111° |
| 2026-04-30 13:30 | 43.17706 | 21.94509 | 25150 ft | 456 kts | 111° |
| 2026-04-30 13:31 | 43.15784 | 22.02663 | 24109 ft | 449 kts | 111° |
| 2026-04-30 13:31 | 43.12938 | 22.14702 | 22651 ft | 438 kts | 111° |
| 2026-04-30 13:32 | 43.11072 | 22.22560 | 21635 ft | 432 kts | 111° |
| 2026-04-30 13:32 | 43.09222 | 22.30334 | 20715 ft | 424 kts | 111° |
| 2026-04-30 13:33 | 43.07422 | 22.37873 | 19934 ft | 414 kts | 111° |
| 2026-04-30 13:33 | 43.05654 | 22.45241 | 19152 ft | 404 kts | 111° |
| 2026-04-30 13:34 | 43.04781 | 22.48870 | 18765 ft | 400 kts | 111° |
| 2026-04-30 13:34 | 43.02202 | 22.59548 | 17596 ft | 387 kts | 109° |
| 2026-04-30 13:35 | 43.01364 | 22.63003 | 17205 ft | 383 kts | 110° |
| 2026-04-30 13:35 | 42.99714 | 22.69830 | 16446 ft | 375 kts | 110° |
| 2026-04-30 13:36 | 42.98300 | 22.75673 | 15794 ft | 369 kts | 110° |
| 2026-04-30 13:36 | 42.97372 | 22.78953 | 15410 ft | 364 kts | 119° |
| 2026-04-30 13:36 | 42.94484 | 22.84445 | 14644 ft | 352 kts | 134° |
| 2026-04-30 13:37 | 42.92890 | 22.86928 | 14270 ft | 348 kts | 133° |
| 2026-04-30 13:37 | 42.90109 | 22.92331 | 13409 ft | 348 kts | 119° |
| 2026-04-30 13:38 | 42.87824 | 22.98161 | 12411 ft | 351 kts | 119° |
| 2026-04-30 13:38 | 42.86651 | 23.01073 | 11894 ft | 339 kts | 118° |
| 2026-04-30 13:38 | 42.84417 | 23.06510 | 11091 ft | 318 kts | 118° |
| 2026-04-30 13:39 | 42.82247 | 23.11719 | 10419 ft | 310 kts | 119° |
| 2026-04-30 13:39 | 42.80166 | 23.16701 | 9932 ft | 291 kts | 118° |
| 2026-04-30 13:40 | 42.79210 | 23.18981 | 9882 ft | 277 kts | 118° |
| 2026-04-30 13:40 | 42.78261 | 23.21246 | 9594 ft | 272 kts | 118° |
| 2026-04-30 13:40 | 42.77335 | 23.23453 | 9321 ft | 267 kts | 117° |
| 2026-04-30 13:40 | 42.76413 | 23.25645 | 9044 ft | 263 kts | 117° |
| 2026-04-30 13:41 | 42.75506 | 23.27800 | 8776 ft | 259 kts | 117° |
| 2026-04-30 13:41 | 42.74617 | 23.29915 | 8502 ft | 255 kts | 117° |
| 2026-04-30 13:41 | 42.73737 | 23.32006 | 8239 ft | 252 kts | 116° |
| 2026-04-30 13:41 | 42.72865 | 23.34070 | 8012 ft | 246 kts | 116° |
| 2026-04-30 13:42 | 42.72023 | 23.36070 | 7980 ft | 243 kts | 116° |
| 2026-04-30 13:42 | 42.71193 | 23.38036 | 7959 ft | 229 kts | 116° |
| 2026-04-30 13:42 | 42.69632 | 23.41735 | 7918 ft | 222 kts | 116° |
| 2026-04-30 13:43 | 42.68871 | 23.43529 | 7807 ft | 209 kts | 116° |
| 2026-04-30 13:43 | 42.68151 | 23.45227 | 7529 ft | 204 kts | 115° |
| 2026-04-30 13:43 | 42.67451 | 23.46881 | 7236 ft | 201 kts | 115° |
| 2026-04-30 13:43 | 42.66758 | 23.48518 | 6934 ft | 198 kts | 115° |
| 2026-04-30 13:44 | 42.66064 | 23.50164 | 6389 ft | 209 kts | 114° |
| 2026-04-30 13:44 | 42.65321 | 23.51935 | 6042 ft | 217 kts | 115° |
| 2026-04-30 13:44 | 42.64560 | 23.53732 | 5983 ft | 219 kts | 115° |
| 2026-04-30 13:44 | 42.63806 | 23.55500 | 5973 ft | 219 kts | 115° |
| 2026-04-30 13:45 | 42.62296 | 23.59040 | 5838 ft | 207 kts | 115° |
| 2026-04-30 13:45 | 42.61601 | 23.60733 | 5545 ft | 201 kts | 109° |
| 2026-04-30 13:45 | 42.61429 | 23.62491 | 5275 ft | 185 kts | 77° |
| 2026-04-30 13:46 | 42.61930 | 23.64031 | 4925 ft | 176 kts | 48° |
| 2026-04-30 13:46 | 42.62858 | 23.65007 | 4606 ft | 169 kts | 24° |
| 2026-04-30 13:46 | 42.63984 | 23.65357 | 4368 ft | 160 kts | 6° |
| 2026-04-30 13:46 | 42.65065 | 23.65484 | 4163 ft | 151 kts | 5° |
| 2026-04-30 13:47 | 42.66076 | 23.65583 | 3989 ft | 143 kts | 1° |
| 2026-04-30 13:47 | 42.67050 | 23.65314 | 3953 ft | 144 kts | 337° |
| 2026-04-30 13:47 | 42.67862 | 23.64473 | 3942 ft | 148 kts | 313° |
| 2026-04-30 13:47 | 42.68338 | 23.63203 | 3940 ft | 153 kts | 288° |
| 2026-04-30 13:48 | 42.68480 | 23.61753 | 3945 ft | 156 kts | 279° |
| 2026-04-30 13:48 | 42.68558 | 23.60262 | 3941 ft | 156 kts | 278° |
| 2026-04-30 13:48 | 42.68631 | 23.58793 | 3923 ft | 156 kts | 279° |
| 2026-04-30 13:48 | 42.68708 | 23.57372 | 3699 ft | 144 kts | 279° |
| 2026-04-30 13:49 | 42.68785 | 23.56039 | 3504 ft | 141 kts | 279° |
| 2026-04-30 13:49 | 42.68866 | 23.54714 | 3316 ft | 140 kts | 279° |
| 2026-04-30 13:49 | 42.68946 | 23.53375 | 3129 ft | 140 kts | 279° |
| 2026-04-30 13:49 | 42.69024 | 23.52069 | 2942 ft | 139 kts | 278° |
| 2026-04-30 13:50 | 42.69101 | 23.50763 | 2756 ft | 137 kts | 278° |
| 2026-04-30 13:50 | 42.69254 | 23.48190 | 2381 ft | 136 kts | 278° |
| 2026-04-30 13:50 | 42.69332 | 23.46892 | 2195 ft | 134 kts | 277° |
| 2026-04-30 13:51 | 42.69407 | 23.45645 | 2019 ft | 134 kts | 277° |
| 2026-04-30 13:51 | 42.69483 | 23.44365 | 1830 ft | 133 kts | 278° |
| 2026-04-30 13:51 | 42.69564 | 23.43123 | 1736 ft | 127 kts | 275° |
| 2026-04-30 13:51 | 42.69624 | 23.42128 | 1738 ft | 74 kts | 276° |
| 2026-04-30 13:52 | 42.69629 | 23.41744 | 1738 ft | 33 kts | 258° |
| 2026-04-30 13:52 | 42.69564 | 23.41511 | 1741 ft | 14 kts | 246° |
| 2026-04-30 13:52 | 42.69525 | 23.41392 | 1742 ft | 13 kts | 245° |
| 2026-04-30 13:52 | 42.69488 | 23.41285 | 1744 ft | 12 kts | 245° |
| 2026-04-30 13:53 | 42.69429 | 23.41200 | 1744 ft | 13 kts | 194° |
| 2026-04-30 13:53 | 42.69337 | 23.41179 | 1744 ft | 13 kts | 190° |
| 2026-04-30 13:53 | 42.69246 | 23.41154 | 1746 ft | 13 kts | 193° |
| 2026-04-30 13:53 | 42.69212 | 23.41148 | 1747 ft | 3 kts | 174° |
| 2026-04-30 13:54 | 42.69185 | 23.41156 | 1747 ft | 4 kts | 160° |
| 2026-04-30 13:54 | 42.69161 | 23.41183 | 1747 ft | 4 kts | 93° |
| 2026-04-30 13:54 | 42.69172 | 23.41215 | 1746 ft | 0 kts | 72° |
| 2026-04-30 13:54 | 42.69176 | 23.41234 | 1746 ft | 3 kts | 71° |
| 2026-04-30 13:55 | 42.69179 | 23.41246 | 1745 ft | 0 kts | 71° |